Almora, Minnesota
Current Conditions -  °F | °C
As of 3:35 PM on Friday 31 Oct 2014 (Local Time) from KADC Reporting Station
Clear Clear  
Wind Chill: 34°   Ceiling: Unl
Heat Index: 37°   Visibility: 10mi
Dew Point: 16°   Wind: 5mph
Humidity: 41%   Direction: 140°SE
Pressure: 30.48"   Gusts: NA
Location:  46.3245°N, 95.3401°W
Report Text: KADC 312035Z AUTO 14004KT 10SM CLR 03/M09 A3048 RMK AO2
Loading
Personal Weather Stations






























Interactive Weather Map
Tropical Storm Tracking
New forecast layout! Learn more

10-Day Weather Forecast

Advertisements
Track Severe Weather on mobile